Time,TemperatureF,DewpointF,PressureIn,WindDirection,WindDirectionDegrees,WindSpeedMPH,WindSpeedGustMPH,Humidity,HourlyPrecipIn,Conditions,Clouds,dailyrainin,SoftwareType,DateUTC
2013-02-05 00:00:00,19.3,7.7,29.95,NW,306,2.0,4.0,60,0.00,,---,0.01,VWS V14.01,2013-02-05 05:00:00,
2013-02-05 00:05:00,19.3,7.7,29.95,SSW,206,0.0,5.0,60,0.00,,---,0.00,VWS V14.01,2013-02-05 05:05:00,
2013-02-05 00:10:00,19.4,9.6,29.95,NNW,329,2.0,5.0,65,0.00,,---,0.00,VWS V14.01,2013-02-05 05:10:00,
2013-02-05 00:15:00,19.5,7.9,29.95,NW,304,0.0,4.0,60,0.00,,---,0.00,VWS V14.01,2013-02-05 05:15:00,
2013-02-05 00:20:00,19.6,8.0,29.95,ENE,67,0.0,5.0,60,0.00,,---,0.00,VWS V14.01,2013-02-05 05:20:00,
2013-02-05 00:25:00,19.7,8.4,29.96,West,263,10.0,10.0,61,0.00,,---,0.00,VWS V14.01,2013-02-05 05:25:00,
2013-02-05 00:30:00,19.8,8.5,29.96,NNW,327,1.0,13.0,61,0.00,,---,0.00,VWS V14.01,2013-02-05 05:30:00,
2013-02-05 00:35:00,19.9,8.6,29.95,NW,304,0.0,5.0,61,0.00,,---,0.00,VWS V14.01,2013-02-05 05:35:00,
2013-02-05 00:40:00,19.9,8.3,29.96,West,264,1.0,3.0,60,0.00,,---,0.00,VWS V14.01,2013-02-05 05:40:00,
2013-02-05 00:45:00,19.9,8.6,29.95,SW,223,0.0,3.0,61,0.00,,---,0.00,VWS V14.01,2013-02-05 05:45:00,
2013-02-05 00:50:00,19.9,8.6,29.96,NW,316,0.0,3.0,61,0.00,,---,0.00,VWS V14.01,2013-02-05 05:50:00,
2013-02-05 00:55:00,20.0,8.7,29.96,ESE,120,1.0,5.0,61,0.00,,---,0.00,VWS V14.01,2013-02-05 05:55:00,
2013-02-05 01:00:00,20.0,8.7,29.95,WNW,296,2.0,4.0,61,0.00,,---,0.00,VWS V14.01,2013-02-05 06:00:00,
2013-02-05 01:05:00,20.0,8.7,29.96,WNW,292,2.0,4.0,61,0.00,,---,0.00,VWS V14.01,2013-02-05 06:05:00,
2013-02-05 01:10:00,20.1,8.8,29.96,NW,319,1.0,4.0,61,0.00,,---,0.00,VWS V14.01,2013-02-05 06:10:00,
2013-02-05 01:15:00,20.1,8.8,29.96,West,273,0.0,6.0,61,0.00,,---,0.00,VWS V14.01,2013-02-05 06:15:00,
2013-02-05 01:20:00,20.2,8.9,29.97,NNW,340,2.0,4.0,61,0.00,,---,0.00,VWS V14.01,2013-02-05 06:20:00,
2013-02-05 01:25:00,20.2,8.9,29.96,WNW,299,2.0,4.0,61,0.00,,---,0.00,VWS V14.01,2013-02-05 06:25:00,
2013-02-05 01:30:00,20.2,8.9,29.97,ENE,78,1.0,3.0,61,0.00,,---,0.00,VWS V14.01,2013-02-05 06:30:00,
2013-02-05 01:35:00,20.2,8.9,29.97,NW,309,0.0,5.0,61,0.00,,---,0.00,VWS V14.01,2013-02-05 06:35:00,
2013-02-05 01:40:00,20.3,9.0,29.97,North,11,0.0,2.0,61,0.00,,---,0.00,VWS V14.01,2013-02-05 06:40:00,
2013-02-05 01:45:00,20.3,9.0,29.98,NE,48,0.0,3.0,61,0.00,,---,0.00,VWS V14.01,2013-02-05 06:45:00,
2013-02-05 01:50:00,20.3,9.0,29.98,NNW,348,2.0,3.0,61,0.00,,---,0.00,VWS V14.01,2013-02-05 06:50:00,
2013-02-05 01:55:00,20.3,9.4,29.98,NW,313,0.0,5.0,62,0.00,,---,0.00,VWS V14.01,2013-02-05 06:55:00,
2013-02-05 02:00:00,20.3,9.4,29.98,East,83,0.0,2.0,62,0.00,,---,0.00,VWS V14.01,2013-02-05 07:00:00,
2013-02-05 02:05:00,20.4,9.5,29.98,SSW,195,1.0,6.0,62,0.00,,---,0.00,VWS V14.01,2013-02-05 07:05:00,
2013-02-05 02:10:00,20.4,9.8,29.98,East,79,2.0,3.0,63,0.00,,---,0.00,VWS V14.01,2013-02-05 07:10:00,
2013-02-05 02:14:00,20.4,9.5,29.97,SSE,163,0.0,5.0,62,0.00,,---,0.00,VWS V14.01,2013-02-05 07:14:00,
2013-02-05 02:15:00,20.4,9.5,29.97,SSE,163,0.0,5.0,62,0.00,,---,0.00,VWS V14.01,2013-02-05 07:15:00,
2013-02-05 02:20:00,20.5,9.6,29.97,West,274,5.0,7.0,62,0.00,,---,0.00,VWS V14.01,2013-02-05 07:20:00,
2013-02-05 02:25:00,20.6,9.7,29.97,NW,323,0.0,5.0,62,0.00,,---,0.00,VWS V14.01,2013-02-05 07:25:00,
2013-02-05 02:30:00,20.6,9.3,29.97,WSW,258,2.0,4.0,61,0.00,,---,0.00,VWS V14.01,2013-02-05 07:30:00,
2013-02-05 02:35:00,20.6,9.3,29.97,NNE,12,0.0,5.0,61,0.00,,---,0.00,VWS V14.01,2013-02-05 07:35:00,
2013-02-05 02:40:00,20.6,9.3,29.96,North,11,0.0,6.0,61,0.00,,---,0.00,VWS V14.01,2013-02-05 07:40:00,
2013-02-05 02:45:00,20.6,9.3,29.96,NNE,17,0.0,1.0,61,0.00,,---,0.00,VWS V14.01,2013-02-05 07:45:00,
2013-02-05 02:50:00,20.5,9.2,29.96,NW,321,1.0,2.0,61,0.00,,---,0.00,VWS V14.01,2013-02-05 07:50:00,
2013-02-05 02:55:00,20.4,9.5,29.96,West,259,0.0,3.0,62,0.00,,---,0.00,VWS V14.01,2013-02-05 07:55:00,
2013-02-05 03:00:00,20.4,9.1,29.97,West,273,4.0,6.0,61,0.00,,---,0.00,VWS V14.01,2013-02-05 08:00:00,
2013-02-05 03:05:00,20.5,9.2,29.97,WSW,250,0.0,4.0,61,0.00,,---,0.00,VWS V14.01,2013-02-05 08:05:00,
2013-02-05 03:10:00,20.6,9.3,29.97,NE,40,2.0,4.0,61,0.00,,---,0.00,VWS V14.01,2013-02-05 08:10:00,
2013-02-05 03:15:00,20.6,9.3,29.97,North,11,0.0,2.0,61,0.00,,---,0.00,VWS V14.01,2013-02-05 08:15:00,
2013-02-05 03:20:00,20.6,9.3,29.98,SW,231,3.0,6.0,61,0.00,,---,0.00,VWS V14.01,2013-02-05 08:20:00,
2013-02-05 03:25:00,20.7,9.4,29.97,NW,315,3.0,5.0,61,0.00,,---,0.00,VWS V14.01,2013-02-05 08:25:00,
2013-02-05 03:30:00,20.7,9.4,29.97,ENE,76,2.0,5.0,61,0.00,,---,0.00,VWS V14.01,2013-02-05 08:30:00,
2013-02-05 03:35:00,20.7,9.0,29.97,WNW,283,1.0,5.0,60,0.00,,---,0.00,VWS V14.01,2013-02-05 08:35:00,
2013-02-05 03:40:00,20.7,9.4,29.97,East,100,0.0,4.0,61,0.00,,---,0.00,VWS V14.01,2013-02-05 08:40:00,
2013-02-05 03:45:00,20.8,9.1,29.97,West,273,2.0,4.0,60,0.00,,---,0.00,VWS V14.01,2013-02-05 08:45:00,
2013-02-05 03:50:00,20.8,9.5,29.97,NW,304,0.0,2.0,61,0.00,,---,0.00,VWS V14.01,2013-02-05 08:50:00,
2013-02-05 03:55:00,20.8,9.1,29.97,West,259,1.0,3.0,60,0.00,,---,0.00,VWS V14.01,2013-02-05 08:55:00,
2013-02-05 04:00:00,20.8,9.1,29.97,North,356,0.0,3.0,60,0.00,,---,0.00,VWS V14.01,2013-02-05 09:00:00,
2013-02-05 04:05:00,20.8,9.1,29.97,North,356,0.0,2.0,60,0.00,,---,0.00,VWS V14.01,2013-02-05 09:05:00,
2013-02-05 04:10:00,20.8,9.5,29.97,North,356,0.0,2.0,61,0.00,,---,0.00,VWS V14.01,2013-02-05 09:10:00,
2013-02-05 04:15:00,20.8,9.5,29.97,WSW,243,0.0,3.0,61,0.00,,---,0.00,VWS V14.01,2013-02-05 09:15:00,
2013-02-05 04:20:00,20.7,9.4,29.97,WSW,243,0.0,1.0,61,0.00,,---,0.00,VWS V14.01,2013-02-05 09:20:00,
2013-02-05 04:25:00,20.7,9.0,29.97,WSW,243,0.0,1.0,60,0.00,,---,0.00,VWS V14.01,2013-02-05 09:25:00,
2013-02-05 04:30:00,20.7,9.8,29.98,WSW,243,0.0,2.0,62,0.00,,---,0.00,VWS V14.01,2013-02-05 09:30:00,
2013-02-05 04:35:00,20.7,9.4,29.98,WSW,243,0.0,1.0,61,0.00,,---,0.00,VWS V14.01,2013-02-05 09:35:00,
2013-02-05 04:40:00,20.7,9.4,29.98,WSW,243,0.0,1.0,61,0.00,,---,0.00,VWS V14.01,2013-02-05 09:40:00,
2013-02-05 04:45:00,20.7,9.8,29.98,WSW,243,0.0,1.0,62,0.00,,---,0.00,VWS V14.01,2013-02-05 09:45:00,
2013-02-05 04:50:00,20.7,9.8,29.98,North,7,1.0,3.0,62,0.00,,---,0.00,VWS V14.01,2013-02-05 09:50:00,
2013-02-05 04:55:00,20.7,9.4,29.97,North,7,0.0,1.0,61,0.00,,---,0.00,VWS V14.01,2013-02-05 09:55:00,
2013-02-05 05:00:00,20.7,9.8,29.98,North,7,0.0,0.0,62,0.00,,---,0.00,VWS V14.01,2013-02-05 10:00:00,
2013-02-05 05:05:00,20.7,9.8,29.98,North,7,0.0,2.0,62,0.00,,---,0.00,VWS V14.01,2013-02-05 10:05:00,
2013-02-05 05:10:00,20.7,10.1,29.98,North,7,0.0,1.0,63,0.00,,---,0.00,VWS V14.01,2013-02-05 10:10:00,
2013-02-05 05:15:00,20.7,9.8,29.98,North,7,0.0,1.0,62,0.00,,---,0.00,VWS V14.01,2013-02-05 10:15:00,
2013-02-05 05:20:00,20.7,9.8,29.98,North,7,0.0,1.0,62,0.00,,---,0.00,VWS V14.01,2013-02-05 10:20:00,
2013-02-05 05:25:00,20.7,9.8,29.98,WNW,284,0.0,2.0,62,0.00,,---,0.00,VWS V14.01,2013-02-05 10:25:00,
2013-02-05 05:30:00,20.6,10.0,29.98,WNW,284,0.0,1.0,63,0.00,,---,0.00,VWS V14.01,2013-02-05 10:30:00,
2013-02-05 05:35:00,20.7,10.5,29.98,WNW,284,0.0,0.0,64,0.00,,---,0.00,VWS V14.01,2013-02-05 10:35:00,
2013-02-05 05:40:00,20.6,10.0,29.98,WNW,284,1.0,2.0,63,0.00,,---,0.00,VWS V14.01,2013-02-05 10:40:00,
2013-02-05 05:45:00,20.6,10.0,29.98,WNW,284,0.0,1.0,63,0.00,,---,0.00,VWS V14.01,2013-02-05 10:45:00,
2013-02-05 05:50:00,20.6,10.4,29.98,WNW,284,0.0,2.0,64,0.00,,---,0.00,VWS V14.01,2013-02-05 10:50:00,
2013-02-05 05:55:00,20.6,10.0,29.98,South,182,0.0,3.0,63,0.00,,---,0.00,VWS V14.01,2013-02-05 10:55:00,
2013-02-05 06:00:00,20.6,10.4,29.98,South,182,0.0,1.0,64,0.00,,---,0.00,VWS V14.01,2013-02-05 11:00:00,
2013-02-05 06:05:00,20.7,10.1,29.99,South,182,0.0,1.0,63,0.00,,---,0.00,VWS V14.01,2013-02-05 11:05:00,
2013-02-05 06:10:00,20.7,10.5,29.99,WNW,285,0.0,3.0,64,0.00,,---,0.00,VWS V14.01,2013-02-05 11:10:00,
2013-02-05 06:15:00,20.7,10.1,29.99,WNW,285,0.0,1.0,63,0.00,,---,0.00,VWS V14.01,2013-02-05 11:15:00,
2013-02-05 06:20:00,20.8,10.6,29.99,NW,319,0.0,3.0,64,0.00,,---,0.00,VWS V14.01,2013-02-05 11:20:00,
2013-02-05 06:25:00,20.9,10.6,29.99,NE,52,0.0,4.0,64,0.00,,---,0.00,VWS V14.01,2013-02-05 11:25:00,
2013-02-05 06:30:00,20.9,10.6,29.99,NE,52,0.0,1.0,64,0.00,,---,0.00,VWS V14.01,2013-02-05 11:30:00,
2013-02-05 06:35:00,21.0,10.4,29.99,WNW,292,0.0,3.0,63,0.00,,---,0.00,VWS V14.01,2013-02-05 11:35:00,
2013-02-05 06:40:00,21.0,10.8,29.99,NW,306,0.0,2.0,64,0.00,,---,0.00,VWS V14.01,2013-02-05 11:40:00,
2013-02-05 06:45:00,21.1,10.5,29.99,NNW,335,0.0,2.0,63,0.00,,---,0.00,VWS V14.01,2013-02-05 11:45:00,
2013-02-05 06:50:00,21.1,10.8,29.99,SW,233,0.0,2.0,64,0.00,,---,0.00,VWS V14.01,2013-02-05 11:50:00,
2013-02-05 06:55:00,21.1,10.8,29.99,SW,233,0.0,1.0,64,0.00,,---,0.00,VWS V14.01,2013-02-05 11:55:00,
2013-02-05 07:00:00,21.2,10.6,29.99,NNW,339,0.0,3.0,63,0.00,,---,0.00,VWS V14.01,2013-02-05 12:00:00,
2013-02-05 07:05:00,21.2,10.9,30.00,NNW,339,0.0,1.0,64,0.00,,---,0.00,VWS V14.01,2013-02-05 12:05:00,
2013-02-05 07:10:00,21.3,10.7,29.99,NNW,339,0.0,0.0,63,0.00,,---,0.00,VWS V14.01,2013-02-05 12:10:00,
2013-02-05 07:15:00,21.3,11.0,29.99,NNW,339,0.0,0.0,64,0.00,,---,0.00,VWS V14.01,2013-02-05 12:15:00,
2013-02-05 07:20:00,21.3,10.7,30.00,NNW,338,0.0,2.0,63,0.00,,---,0.00,VWS V14.01,2013-02-05 12:20:00,
2013-02-05 07:25:00,21.4,10.8,30.00,NNW,338,0.0,1.0,63,0.00,,---,0.00,VWS V14.01,2013-02-05 12:25:00,
2013-02-05 07:30:00,21.5,11.2,30.00,NNW,338,0.0,2.0,64,0.00,,---,0.00,VWS V14.01,2013-02-05 12:30:00,
2013-02-05 07:35:00,21.5,10.9,30.00,NNW,338,0.0,1.0,63,0.00,,---,0.00,VWS V14.01,2013-02-05 12:35:00,
2013-02-05 07:40:00,21.6,11.0,30.01,NNW,338,0.0,1.0,63,0.00,,---,0.00,VWS V14.01,2013-02-05 12:40:00,
2013-02-05 07:45:00,21.7,11.4,30.01,NNE,17,2.0,3.0,64,0.00,,---,0.00,VWS V14.01,2013-02-05 12:45:00,
2013-02-05 07:50:00,21.8,11.2,30.02,WSW,250,0.0,3.0,63,0.00,,---,0.00,VWS V14.01,2013-02-05 12:50:00,
2013-02-05 07:55:00,21.9,11.2,30.02,NNW,340,0.0,2.0,63,0.00,,---,0.00,VWS V14.01,2013-02-05 12:55:00,
2013-02-05 08:00:00,22.0,11.0,30.02,NNW,340,0.0,2.0,62,0.00,,---,0.00,VWS V14.01,2013-02-05 13:00:00,
2013-02-05 08:05:00,22.1,11.1,30.03,NNW,327,0.0,2.0,62,0.00,,---,0.00,VWS V14.01,2013-02-05 13:05:00,
2013-02-05 08:10:00,22.2,11.2,30.03,WSW,245,0.0,6.0,62,0.00,,---,0.00,VWS V14.01,2013-02-05 13:10:00,
2013-02-05 08:15:00,22.2,10.8,30.03,NW,326,1.0,4.0,61,0.00,,---,0.00,VWS V14.01,2013-02-05 13:15:00,
2013-02-05 08:20:00,22.4,11.4,30.02,NW,326,1.0,2.0,62,0.00,,---,0.00,VWS V14.01,2013-02-05 13:20:00,
2013-02-05 08:25:00,22.4,11.0,30.03,NW,323,2.0,4.0,61,0.00,,---,0.00,VWS V14.01,2013-02-05 13:25:00,
2013-02-05 08:30:00,22.5,10.7,30.03,NNE,21,4.0,4.0,60,0.00,,---,0.00,VWS V14.01,2013-02-05 13:30:00,
2013-02-05 08:35:00,22.5,11.1,30.03,North,8,0.0,4.0,61,0.00,,---,0.00,VWS V14.01,2013-02-05 13:35:00,
2013-02-05 08:40:00,22.6,10.8,30.02,North,354,0.0,5.0,60,0.00,,---,0.00,VWS V14.01,2013-02-05 13:40:00,
2013-02-05 08:45:00,22.7,10.9,30.02,North,356,3.0,5.0,60,0.00,,---,0.00,VWS V14.01,2013-02-05 13:45:00,
2013-02-05 08:50:00,22.7,10.5,30.02,NNW,340,0.0,3.0,59,0.00,,---,0.00,VWS V14.01,2013-02-05 13:50:00,
2013-02-05 08:55:00,22.8,10.6,30.03,WNW,292,0.0,3.0,59,0.00,,---,0.00,VWS V14.01,2013-02-05 13:55:00,
2013-02-05 09:00:00,22.9,11.1,30.03,WNW,292,0.0,3.0,60,0.00,,---,0.00,VWS V14.01,2013-02-05 14:00:00,
2013-02-05 09:05:00,23.0,11.2,30.03,WNW,292,0.0,2.0,60,0.00,,---,0.00,VWS V14.01,2013-02-05 14:05:00,
2013-02-05 09:10:00,23.1,11.3,30.03,NNW,328,2.0,3.0,60,0.00,,---,0.00,VWS V14.01,2013-02-05 14:10:00,
2013-02-05 09:15:00,23.1,10.5,30.03,WSW,240,0.0,5.0,58,0.00,,---,0.00,VWS V14.01,2013-02-05 14:15:00,
2013-02-05 09:20:00,23.1,10.5,30.03,NW,306,0.0,3.0,58,0.00,,---,0.00,VWS V14.01,2013-02-05 14:20:00,
2013-02-05 09:25:00,23.3,10.7,30.03,West,260,4.0,4.0,58,0.00,,---,0.00,VWS V14.01,2013-02-05 14:25:00,
2013-02-05 09:30:00,23.3,10.7,30.03,WNW,300,1.0,4.0,58,0.00,,---,0.00,VWS V14.01,2013-02-05 14:30:00,
2013-02-05 09:35:00,23.3,10.3,30.03,NW,320,1.0,4.0,57,0.00,,---,0.00,VWS V14.01,2013-02-05 14:35:00,
2013-02-05 09:40:00,23.4,10.4,30.03,WSW,258,0.0,4.0,57,0.00,,---,0.00,VWS V14.01,2013-02-05 14:40:00,
2013-02-05 09:45:00,23.5,10.1,30.03,WNW,291,7.0,7.0,56,0.00,,---,0.00,VWS V14.01,2013-02-05 14:45:00,
2013-02-05 09:50:00,23.5,9.7,30.03,NW,316,3.0,7.0,55,0.00,,---,0.00,VWS V14.01,2013-02-05 14:50:00,
2013-02-05 09:55:00,23.6,10.2,30.03,NNW,331,4.0,5.0,56,0.00,,---,0.00,VWS V14.01,2013-02-05 14:55:00,
2013-02-05 10:00:00,23.6,9.4,30.03,WNW,301,0.0,4.0,54,0.00,,---,0.00,VWS V14.01,2013-02-05 15:00:00,
2013-02-05 10:05:00,23.7,9.9,30.03,NW,317,2.0,3.0,55,0.00,,---,0.00,VWS V14.01,2013-02-05 15:05:00,
2013-02-05 10:10:00,23.8,10.0,30.03,WNW,294,4.0,6.0,55,0.00,,---,0.00,VWS V14.01,2013-02-05 15:10:00,
2013-02-05 10:15:00,23.9,10.1,30.03,NNE,19,0.0,4.0,55,0.00,,---,0.00,VWS V14.01,2013-02-05 15:15:00,
2013-02-05 10:20:00,24.1,9.9,30.03,NNW,339,0.0,3.0,54,0.00,,---,0.00,VWS V14.01,2013-02-05 15:20:00,
2013-02-05 10:25:00,24.3,10.1,30.03,NNW,334,2.0,7.0,54,0.00,,---,0.00,VWS V14.01,2013-02-05 15:25:00,
2013-02-05 10:30:00,24.3,9.6,30.03,NE,35,2.0,4.0,53,0.00,,---,0.00,VWS V14.01,2013-02-05 15:30:00,
2013-02-05 10:35:00,24.4,10.1,30.03,NNE,14,2.0,2.0,54,0.00,,---,0.00,VWS V14.01,2013-02-05 15:35:00,
2013-02-05 10:40:00,24.5,9.8,30.03,ENE,59,0.0,3.0,53,0.00,,---,0.00,VWS V14.01,2013-02-05 15:40:00,
2013-02-05 10:45:00,24.6,9.9,30.03,North,355,3.0,5.0,53,0.00,,---,0.00,VWS V14.01,2013-02-05 15:45:00,
2013-02-05 10:50:00,24.5,9.8,30.03,North,355,2.0,6.0,53,0.00,,---,0.00,VWS V14.01,2013-02-05 15:50:00,
2013-02-05 10:55:00,24.7,10.0,30.03,North,5,1.0,4.0,53,0.00,,---,0.00,VWS V14.01,2013-02-05 15:55:00,
2013-02-05 11:00:00,24.8,10.1,30.03,WSW,255,3.0,5.0,53,0.00,,---,0.00,VWS V14.01,2013-02-05 16:00:00,
2013-02-05 11:05:00,24.8,10.1,30.03,WSW,255,0.0,3.0,53,0.00,,---,0.00,VWS V14.01,2013-02-05 16:05:00,
2013-02-05 11:10:00,25.1,10.4,30.03,NW,305,1.0,2.0,53,0.00,,---,0.00,VWS V14.01,2013-02-05 16:10:00,
2013-02-05 11:15:00,25.3,10.6,30.03,North,3,1.0,3.0,53,0.00,,---,0.00,VWS V14.01,2013-02-05 16:15:00,
2013-02-05 11:20:00,25.5,10.8,30.02,SE,135,2.0,2.0,53,0.00,,---,0.00,VWS V14.01,2013-02-05 16:20:00,
2013-02-05 11:25:00,25.6,10.9,30.02,North,1,0.0,3.0,53,0.00,,---,0.00,VWS V14.01,2013-02-05 16:25:00,
2013-02-05 11:30:00,26.0,10.8,30.02,West,275,1.0,3.0,52,0.00,,---,0.00,VWS V14.01,2013-02-05 16:30:00,
2013-02-05 11:35:00,26.1,10.9,30.02,West,259,0.0,2.0,52,0.00,,---,0.00,VWS V14.01,2013-02-05 16:35:00,
2013-02-05 11:40:00,26.3,11.1,30.01,NNE,21,2.0,3.0,52,0.00,,---,0.00,VWS V14.01,2013-02-05 16:40:00,
2013-02-05 11:45:00,26.5,11.3,30.01,North,354,1.0,2.0,52,0.00,,---,0.00,VWS V14.01,2013-02-05 16:45:00,
2013-02-05 11:50:00,26.5,11.3,30.01,SW,221,0.0,4.0,52,0.00,,---,0.00,VWS V14.01,2013-02-05 16:50:00,
2013-02-05 11:55:00,26.5,10.8,30.01,NNE,19,0.0,5.0,51,0.00,,---,0.00,VWS V14.01,2013-02-05 16:55:00,
2013-02-05 12:00:00,26.3,10.6,30.01,WSW,244,1.0,4.0,51,0.00,,---,0.00,VWS V14.01,2013-02-05 17:00:00,
2013-02-05 12:05:00,26.2,10.6,30.00,WSW,244,0.0,2.0,51,0.00,,---,0.00,VWS V14.01,2013-02-05 17:05:00,
2013-02-05 12:10:00,26.3,11.1,30.00,NE,44,0.0,3.0,52,0.00,,---,0.00,VWS V14.01,2013-02-05 17:10:00,
2013-02-05 12:15:00,26.3,10.6,30.00,North,349,1.0,3.0,51,0.00,,---,0.00,VWS V14.01,2013-02-05 17:15:00,
2013-02-05 12:20:00,26.5,11.3,30.00,North,8,2.0,4.0,52,0.00,,---,0.00,VWS V14.01,2013-02-05 17:20:00,
2013-02-05 12:25:00,26.5,10.8,30.00,North,7,1.0,2.0,51,0.00,,---,0.00,VWS V14.01,2013-02-05 17:25:00,
2013-02-05 12:30:00,26.5,11.3,30.00,WNW,294,0.0,3.0,52,0.00,,---,0.00,VWS V14.01,2013-02-05 17:30:00,
2013-02-05 12:35:00,26.5,11.3,30.00,WNW,295,1.0,2.0,52,0.00,,---,0.00,VWS V14.01,2013-02-05 17:35:00,
2013-02-05 12:40:00,26.6,11.8,30.00,WSW,242,2.0,3.0,53,0.00,,---,0.00,VWS V14.01,2013-02-05 17:40:00,
2013-02-05 12:45:00,26.7,11.9,30.00,WSW,239,0.0,2.0,53,0.00,,---,0.00,VWS V14.01,2013-02-05 17:45:00,
2013-02-05 12:50:00,26.7,11.4,30.00,SSW,199,0.0,4.0,52,0.00,,---,0.00,VWS V14.01,2013-02-05 17:50:00,
2013-02-05 12:55:00,26.7,11.4,29.99,SSW,205,0.0,2.0,52,0.00,,---,0.00,VWS V14.01,2013-02-05 17:55:00,
2013-02-05 13:00:00,26.8,11.6,29.99,SSW,205,2.0,2.0,52,0.00,,---,0.00,VWS V14.01,2013-02-05 18:00:00,
2013-02-05 13:05:00,26.8,12.0,29.99,North,352,0.0,3.0,53,0.00,,---,0.00,VWS V14.01,2013-02-05 18:05:00,
2013-02-05 13:10:00,27.0,12.6,29.99,West,264,0.0,2.0,54,0.00,,---,0.00,VWS V14.01,2013-02-05 18:10:00,
2013-02-05 13:15:00,27.1,12.2,29.98,WSW,240,0.0,2.0,53,0.00,,---,0.00,VWS V14.01,2013-02-05 18:15:00,
2013-02-05 13:20:00,27.2,13.2,29.98,WSW,238,0.0,2.0,55,0.00,,---,0.00,VWS V14.01,2013-02-05 18:20:00,
2013-02-05 13:25:00,27.4,12.5,29.98,SSW,200,0.0,3.0,53,0.00,,---,0.00,VWS V14.01,2013-02-05 18:25:00,
2013-02-05 13:30:00,27.5,13.1,29.98,WSW,242,0.0,4.0,54,0.00,,---,0.00,VWS V14.01,2013-02-05 18:30:00,
2013-02-05 13:35:00,27.7,12.8,29.98,SSW,197,2.0,2.0,53,0.00,,---,0.00,VWS V14.01,2013-02-05 18:35:00,
2013-02-05 13:40:00,27.7,12.8,29.98,SE,131,2.0,3.0,53,0.00,,---,0.00,VWS V14.01,2013-02-05 18:40:00,
2013-02-05 13:45:00,27.7,12.4,29.98,SE,132,2.0,3.0,52,0.00,,---,0.00,VWS V14.01,2013-02-05 18:45:00,
2013-02-05 13:50:00,27.7,12.8,29.98,SSW,195,2.0,4.0,53,0.00,,---,0.00,VWS V14.01,2013-02-05 18:50:00,
2013-02-05 13:55:00,27.6,12.7,29.98,SSE,167,0.0,2.0,53,0.00,,---,0.00,VWS V14.01,2013-02-05 18:55:00,
2013-02-05 14:00:00,27.6,12.7,29.98,SSW,200,0.0,3.0,53,0.00,,---,0.00,VWS V14.01,2013-02-05 19:00:00,
2013-02-05 14:05:00,27.5,12.6,29.98,SSW,200,0.0,4.0,53,0.00,,---,0.00,VWS V14.01,2013-02-05 19:05:00,
2013-02-05 14:10:00,27.5,12.6,29.98,WNW,295,0.0,2.0,53,0.00,,---,0.00,VWS V14.01,2013-02-05 19:10:00,
2013-02-05 14:15:00,27.6,13.1,29.98,SSW,209,3.0,3.0,54,0.00,,---,0.00,VWS V14.01,2013-02-05 19:15:00,
2013-02-05 14:20:00,27.8,13.3,29.98,SSW,209,0.0,3.0,54,0.00,,---,0.00,VWS V14.01,2013-02-05 19:20:00,
2013-02-05 14:25:00,27.9,13.0,29.98,SW,229,2.0,3.0,53,0.00,,---,0.00,VWS V14.01,2013-02-05 19:25:00,
2013-02-05 14:30:00,27.9,13.0,29.98,SE,133,0.0,3.0,53,0.00,,---,0.00,VWS V14.01,2013-02-05 19:30:00,
2013-02-05 14:35:00,27.9,13.4,29.98,SE,133,0.0,2.0,54,0.00,,---,0.00,VWS V14.01,2013-02-05 19:35:00,
2013-02-05 14:40:00,27.9,13.4,29.98,SE,136,0.0,3.0,54,0.00,,---,0.00,VWS V14.01,2013-02-05 19:40:00,
2013-02-05 14:45:00,27.9,13.8,29.98,WSW,254,0.0,2.0,55,0.00,,---,0.00,VWS V14.01,2013-02-05 19:45:00,
2013-02-05 14:50:00,27.9,13.4,29.98,SSW,205,3.0,3.0,54,0.00,,---,0.00,VWS V14.01,2013-02-05 19:50:00,
2013-02-05 14:55:00,27.8,12.9,29.98,SSW,206,0.0,3.0,53,0.00,,---,0.00,VWS V14.01,2013-02-05 19:55:00,
2013-02-05 15:00:00,27.6,13.1,29.97,SSW,205,0.0,3.0,54,0.00,,---,0.00,VWS V14.01,2013-02-05 20:00:00,
2013-02-05 15:05:00,27.5,13.5,29.97,South,177,1.0,3.0,55,0.00,,---,0.00,VWS V14.01,2013-02-05 20:05:00,
2013-02-05 15:10:00,27.5,13.5,29.97,South,177,0.0,2.0,55,0.00,,---,0.00,VWS V14.01,2013-02-05 20:10:00,
2013-02-05 15:15:00,27.6,13.1,29.97,South,177,0.0,2.0,54,0.00,,---,0.00,VWS V14.01,2013-02-05 20:15:00,
2013-02-05 15:20:00,27.7,13.6,29.97,SW,215,3.0,3.0,55,0.00,,---,0.00,VWS V14.01,2013-02-05 20:20:00,
2013-02-05 15:25:00,27.7,13.6,29.97,SSW,204,0.0,5.0,55,0.00,,---,0.00,VWS V14.01,2013-02-05 20:25:00,
2013-02-05 15:30:00,27.6,14.0,29.97,SSE,149,0.0,3.0,56,0.00,,---,0.00,VWS V14.01,2013-02-05 20:30:00,
2013-02-05 15:35:00,27.5,13.9,29.96,SSE,149,1.0,3.0,56,0.00,,---,0.00,VWS V14.01,2013-02-05 20:35:00,
2013-02-05 15:40:00,27.5,14.3,29.96,SE,128,0.0,3.0,57,0.00,,---,0.00,VWS V14.01,2013-02-05 20:40:00,
2013-02-05 15:45:00,27.4,14.2,29.96,SSW,209,1.0,4.0,57,0.00,,---,0.00,VWS V14.01,2013-02-05 20:45:00,
2013-02-05 15:50:00,27.2,14.4,29.96,SSW,209,1.0,3.0,58,0.00,,---,0.00,VWS V14.01,2013-02-05 20:50:00,
2013-02-05 15:55:00,27.1,14.3,29.96,SSE,151,0.0,3.0,58,0.00,,---,0.00,VWS V14.01,2013-02-05 20:55:00,
2013-02-05 16:00:00,27.0,15.0,29.96,SE,138,2.0,2.0,60,0.00,,---,0.00,VWS V14.01,2013-02-05 21:00:00,
2013-02-05 16:05:00,26.9,14.9,29.96,SE,131,0.0,4.0,60,0.00,,---,0.00,VWS V14.01,2013-02-05 21:05:00,
2013-02-05 16:10:00,26.8,14.8,29.95,SE,131,0.0,2.0,60,0.00,,---,0.00,VWS V14.01,2013-02-05 21:10:00,
2013-02-05 16:15:00,26.8,14.8,29.96,SE,131,0.0,1.0,60,0.00,,---,0.00,VWS V14.01,2013-02-05 21:15:00,
2013-02-05 16:20:00,26.7,14.7,29.96,SE,131,0.0,1.0,60,0.00,,---,0.00,VWS V14.01,2013-02-05 21:20:00,
2013-02-05 16:25:00,26.7,15.1,29.95,SE,131,0.0,1.0,61,0.00,,---,0.00,VWS V14.01,2013-02-05 21:25:00,
2013-02-05 16:30:00,26.7,15.1,29.96,SE,131,0.0,1.0,61,0.00,,---,0.00,VWS V14.01,2013-02-05 21:30:00,
2013-02-05 16:35:00,26.6,15.0,29.96,SE,131,0.0,3.0,61,0.00,,---,0.00,VWS V14.01,2013-02-05 21:35:00,
2013-02-05 16:40:00,26.5,14.9,29.96,ESE,113,1.0,1.0,61,0.00,,---,0.00,VWS V14.01,2013-02-05 21:40:00,
2013-02-05 16:45:00,26.4,15.2,29.96,SSE,153,0.0,3.0,62,0.00,,---,0.00,VWS V14.01,2013-02-05 21:45:00,
2013-02-05 16:50:00,26.3,15.1,29.96,East,79,0.0,2.0,62,0.00,,---,0.00,VWS V14.01,2013-02-05 21:50:00,
2013-02-05 16:55:00,26.3,15.4,29.96,SE,138,0.0,3.0,63,0.00,,---,0.00,VWS V14.01,2013-02-05 21:55:00,
2013-02-05 17:00:00,26.2,15.3,29.97,SE,128,0.0,3.0,63,0.00,,---,0.00,VWS V14.01,2013-02-05 22:00:00,
2013-02-05 17:05:00,26.1,15.6,29.97,SE,128,0.0,1.0,64,0.00,,---,0.00,VWS V14.01,2013-02-05 22:05:00,
2013-02-05 17:10:00,26.1,15.6,29.97,SE,128,0.0,2.0,64,0.00,,---,0.00,VWS V14.01,2013-02-05 22:10:00,
2013-02-05 17:15:00,26.1,15.6,29.97,SE,128,0.0,2.0,64,0.00,,---,0.00,VWS V14.01,2013-02-05 22:15:00,
2013-02-05 17:20:00,26.1,16.0,29.96,SE,128,0.0,2.0,65,0.00,,---,0.00,VWS V14.01,2013-02-05 22:20:00,
2013-02-05 17:25:00,26.0,15.9,29.96,SE,128,0.0,1.0,65,0.00,,---,0.00,VWS V14.01,2013-02-05 22:25:00,
2013-02-05 17:30:00,26.1,16.3,29.96,SE,128,1.0,2.0,66,0.00,,---,0.00,VWS V14.01,2013-02-05 22:30:00,
2013-02-05 17:35:00,26.0,16.2,29.96,SE,128,0.0,1.0,66,0.00,,---,0.00,VWS V14.01,2013-02-05 22:35:00,
2013-02-05 17:40:00,26.0,16.2,29.95,SE,128,1.0,1.0,66,0.00,,---,0.00,VWS V14.01,2013-02-05 22:40:00,
2013-02-05 17:45:00,26.0,16.2,29.95,SSE,154,1.0,3.0,66,0.00,,---,0.00,VWS V14.01,2013-02-05 22:45:00,
2013-02-05 17:50:00,26.0,16.6,29.96,SSE,154,0.0,2.0,67,0.00,,---,0.00,VWS V14.01,2013-02-05 22:50:00,
2013-02-05 17:55:00,26.0,16.6,29.96,SSE,154,0.0,2.0,67,0.00,,---,0.00,VWS V14.01,2013-02-05 22:55:00,
2013-02-05 18:00:00,26.1,16.7,29.96,SSW,205,3.0,3.0,67,0.00,,---,0.00,VWS V14.01,2013-02-05 23:00:00,
2013-02-05 18:05:00,26.1,16.7,29.96,SSW,206,0.0,3.0,67,0.00,,---,0.00,VWS V14.01,2013-02-05 23:05:00,
2013-02-05 18:10:00,26.1,16.7,29.96,SSW,206,0.0,2.0,67,0.00,,---,0.00,VWS V14.01,2013-02-05 23:10:00,
2013-02-05 18:15:00,26.1,16.7,29.96,SSW,213,3.0,4.0,67,0.00,,---,0.00,VWS V14.01,2013-02-05 23:15:00,
2013-02-05 18:20:00,26.1,16.7,29.96,SSE,166,0.0,3.0,67,0.00,,---,0.00,VWS V14.01,2013-02-05 23:20:00,
2013-02-05 18:25:00,26.1,17.0,29.97,SSE,166,0.0,1.0,68,0.00,,---,0.00,VWS V14.01,2013-02-05 23:25:00,
2013-02-05 18:30:00,26.2,17.1,29.97,SSE,167,0.0,1.0,68,0.00,,---,0.00,VWS V14.01,2013-02-05 23:30:00,
2013-02-05 18:35:00,26.2,17.1,29.97,WSW,242,0.0,3.0,68,0.00,,---,0.00,VWS V14.01,2013-02-05 23:35:00,
2013-02-05 18:40:00,26.2,17.1,29.97,SSW,198,0.0,3.0,68,0.00,,---,0.00,VWS V14.01,2013-02-05 23:40:00,
2013-02-05 18:45:00,26.1,17.3,29.97,SSW,198,0.0,2.0,69,0.00,,---,0.00,VWS V14.01,2013-02-05 23:45:00,
2013-02-05 18:50:00,26.1,17.3,29.97,South,175,1.0,2.0,69,0.00,,---,0.00,VWS V14.01,2013-02-05 23:50:00,
2013-02-05 18:55:00,26.1,17.7,29.97,SSE,164,0.0,3.0,70,0.00,,---,0.00,VWS V14.01,2013-02-05 23:55:00,
2013-02-05 19:00:00,26.1,17.7,29.97,SSE,164,0.0,3.0,70,0.00,,---,0.00,VWS V14.01,2013-02-06 00:00:00,
2013-02-05 19:05:00,26.1,17.7,29.97,SW,228,0.0,2.0,70,0.00,,---,0.00,VWS V14.01,2013-02-06 00:05:00,
2013-02-05 19:10:00,26.1,18.0,29.97,SSW,197,1.0,2.0,71,0.00,,---,0.00,VWS V14.01,2013-02-06 00:10:00,
2013-02-05 19:15:00,26.1,18.0,29.97,SSW,197,0.0,2.0,71,0.00,,---,0.00,VWS V14.01,2013-02-06 00:15:00,
2013-02-05 19:20:00,26.1,18.0,29.97,SSW,197,0.0,1.0,71,0.00,,---,0.00,VWS V14.01,2013-02-06 00:20:00,
2013-02-05 19:25:00,26.1,17.7,29.97,SSW,206,0.0,3.0,70,0.00,,---,0.00,VWS V14.01,2013-02-06 00:25:00,
2013-02-05 19:30:00,26.1,18.0,29.96,SSW,206,0.0,2.0,71,0.00,,---,0.00,VWS V14.01,2013-02-06 00:30:00,
2013-02-05 19:35:00,26.1,18.0,29.96,SSW,206,0.0,1.0,71,0.00,,---,0.00,VWS V14.01,2013-02-06 00:35:00,
2013-02-05 19:40:00,26.1,18.0,29.96,SSW,206,0.0,3.0,71,0.00,,---,0.00,VWS V14.01,2013-02-06 00:40:00,
2013-02-05 19:45:00,26.0,18.2,29.96,SSW,206,0.0,1.0,72,0.00,,---,0.00,VWS V14.01,2013-02-06 00:45:00,
2013-02-05 19:50:00,26.0,18.5,29.97,SSW,206,0.0,2.0,73,0.00,,---,0.00,VWS V14.01,2013-02-06 00:50:00,
2013-02-05 19:55:00,26.0,18.9,29.97,SSW,206,0.0,1.0,74,0.00,,---,0.00,VWS V14.01,2013-02-06 00:55:00,
2013-02-05 20:00:00,25.9,19.4,29.97,South,187,0.0,3.0,76,0.00,,---,0.00,VWS V14.01,2013-02-06 01:00:00,
2013-02-05 20:05:00,25.8,19.6,29.97,South,187,0.0,1.0,77,0.00,,---,0.00,VWS V14.01,2013-02-06 01:05:00,
2013-02-05 20:10:00,25.7,19.8,29.97,South,187,0.0,1.0,78,0.00,,---,0.00,VWS V14.01,2013-02-06 01:10:00,
2013-02-05 20:15:00,25.6,20.3,29.97,South,187,0.0,2.0,80,0.00,,---,0.00,VWS V14.01,2013-02-06 01:15:00,
2013-02-05 20:20:00,25.4,20.4,29.97,SW,215,0.0,2.0,81,0.00,,---,0.00,VWS V14.01,2013-02-06 01:20:00,
2013-02-05 20:25:00,25.3,20.6,29.97,SW,215,1.0,2.0,82,0.00,,---,0.00,VWS V14.01,2013-02-06 01:25:00,
2013-02-05 20:30:00,25.2,20.8,29.97,SW,215,0.0,1.0,83,0.00,,---,0.00,VWS V14.01,2013-02-06 01:30:00,
2013-02-05 20:35:00,25.0,20.9,29.97,SW,215,0.0,1.0,84,0.00,,---,0.00,VWS V14.01,2013-02-06 01:35:00,
2013-02-05 20:40:00,24.9,21.0,29.97,SW,215,2.0,2.0,85,0.00,,---,0.00,VWS V14.01,2013-02-06 01:40:00,
2013-02-05 20:45:00,24.7,20.8,29.97,SW,215,0.0,2.0,85,0.00,,---,0.00,VWS V14.01,2013-02-06 01:45:00,
2013-02-05 20:50:00,24.6,21.0,29.97,SW,215,0.0,0.0,86,0.00,,---,0.00,VWS V14.01,2013-02-06 01:50:00,
2013-02-05 20:55:00,24.6,21.0,29.98,SW,215,0.0,0.0,86,0.00,,---,0.00,VWS V14.01,2013-02-06 01:55:00,
2013-02-05 21:00:00,24.6,21.3,29.97,SW,215,0.0,0.0,87,0.00,,---,0.00,VWS V14.01,2013-02-06 02:00:00,
2013-02-05 21:05:00,24.6,21.3,29.97,SW,215,0.0,1.0,87,0.00,,---,0.00,VWS V14.01,2013-02-06 02:05:00,
2013-02-05 21:10:00,24.5,21.2,29.97,SW,215,0.0,0.0,87,0.00,,---,0.00,VWS V14.01,2013-02-06 02:10:00,
2013-02-05 21:15:00,24.5,21.5,29.97,SW,215,0.0,0.0,88,0.00,,---,0.00,VWS V14.01,2013-02-06 02:15:00,
2013-02-05 21:20:00,24.5,21.5,29.97,SW,215,0.0,0.0,88,0.00,,---,0.00,VWS V14.01,2013-02-06 02:20:00,
2013-02-05 21:25:00,24.4,21.4,29.97,SW,215,0.0,0.0,88,0.00,,---,0.00,VWS V14.01,2013-02-06 02:25:00,
2013-02-05 21:30:00,24.4,21.4,29.97,SW,215,0.0,0.0,88,0.00,,---,0.00,VWS V14.01,2013-02-06 02:30:00,
2013-02-05 21:35:00,24.4,21.4,29.97,SW,215,0.0,0.0,88,0.00,,---,0.00,VWS V14.01,2013-02-06 02:35:00,
2013-02-05 21:40:00,24.4,21.4,29.97,SW,215,0.0,0.0,88,0.00,,---,0.00,VWS V14.01,2013-02-06 02:40:00,
2013-02-05 21:45:00,24.4,21.4,29.97,SW,215,0.0,0.0,88,0.00,,---,0.00,VWS V14.01,2013-02-06 02:45:00,
2013-02-05 21:50:00,24.4,21.6,29.97,SW,215,0.0,0.0,89,0.00,,---,0.00,VWS V14.01,2013-02-06 02:50:00,
2013-02-05 21:55:00,24.4,21.4,29.97,SW,215,0.0,0.0,88,0.00,,---,0.00,VWS V14.01,2013-02-06 02:55:00,
2013-02-05 22:00:00,24.4,21.6,29.97,SW,215,0.0,0.0,89,0.00,,---,0.00,VWS V14.01,2013-02-06 03:00:00,
2013-02-05 22:05:00,24.4,21.6,29.97,SW,215,0.0,0.0,89,0.00,,---,0.00,VWS V14.01,2013-02-06 03:05:00,
2013-02-05 22:10:00,24.4,21.6,29.96,SW,215,0.0,0.0,89,0.00,,---,0.00,VWS V14.01,2013-02-06 03:10:00,
2013-02-05 22:15:00,24.4,21.6,29.96,SW,215,0.0,0.0,89,0.00,,---,0.00,VWS V14.01,2013-02-06 03:15:00,
2013-02-05 22:20:00,24.4,21.6,29.96,SW,215,0.0,0.0,89,0.00,,---,0.00,VWS V14.01,2013-02-06 03:20:00,
2013-02-05 22:25:00,24.4,21.6,29.96,SW,215,0.0,0.0,89,0.00,,---,0.00,VWS V14.01,2013-02-06 03:25:00,
2013-02-05 22:30:00,24.4,21.6,29.96,SW,215,0.0,0.0,89,0.00,,---,0.00,VWS V14.01,2013-02-06 03:30:00,
2013-02-05 22:35:00,24.4,21.6,29.96,SW,215,0.0,0.0,89,0.00,,---,0.00,VWS V14.01,2013-02-06 03:35:00,
2013-02-05 22:40:00,24.4,21.6,29.96,SW,215,0.0,0.0,89,0.00,,---,0.00,VWS V14.01,2013-02-06 03:40:00,
2013-02-05 22:45:00,24.4,21.9,29.95,SW,215,0.0,0.0,90,0.00,,---,0.00,VWS V14.01,2013-02-06 03:45:00,
2013-02-05 22:50:00,24.4,21.9,29.95,SW,215,0.0,0.0,90,0.00,,---,0.00,VWS V14.01,2013-02-06 03:50:00,
2013-02-05 22:55:00,24.4,21.9,29.95,SW,215,0.0,0.0,90,0.00,,---,0.00,VWS V14.01,2013-02-06 03:55:00,
2013-02-05 23:00:00,24.5,22.0,29.95,SW,215,0.0,0.0,90,0.00,,---,0.00,VWS V14.01,2013-02-06 04:00:00,
2013-02-05 23:05:00,24.5,22.0,29.95,SW,215,0.0,0.0,90,0.00,,---,0.00,VWS V14.01,2013-02-06 04:05:00,
2013-02-05 23:10:00,24.6,22.1,29.95,SW,215,0.0,0.0,90,0.00,,---,0.00,VWS V14.01,2013-02-06 04:10:00,
2013-02-05 23:15:00,24.6,22.1,29.95,SW,215,0.0,0.0,90,0.00,,---,0.00,VWS V14.01,2013-02-06 04:15:00,
2013-02-05 23:20:00,24.6,22.1,29.95,SW,215,0.0,0.0,90,0.00,,---,0.00,VWS V14.01,2013-02-06 04:20:00,
2013-02-05 23:25:00,24.6,22.1,29.95,SW,215,0.0,0.0,90,0.00,,---,0.00,VWS V14.01,2013-02-06 04:25:00,
2013-02-05 23:30:00,24.6,22.1,29.95,SW,215,0.0,0.0,90,0.00,,---,0.00,VWS V14.01,2013-02-06 04:30:00,
2013-02-05 23:35:00,24.6,22.1,29.94,SW,215,0.0,0.0,90,0.00,,---,0.00,VWS V14.01,2013-02-06 04:35:00,
2013-02-05 23:40:00,24.6,22.1,29.95,SW,215,0.0,0.0,90,0.00,,---,0.00,VWS V14.01,2013-02-06 04:40:00,
2013-02-05 23:45:00,24.6,22.1,29.95,SW,215,0.0,2.0,90,0.00,,---,0.00,VWS V14.01,2013-02-06 04:45:00,
2013-02-05 23:50:00,24.5,22.0,29.95,SW,215,0.0,0.0,90,0.00,,---,0.00,VWS V14.01,2013-02-06 04:50:00,
2013-02-05 23:55:00,24.5,22.0,29.94,SW,215,0.0,0.0,90,0.00,,---,0.00,VWS V14.01,2013-02-06 04:55:00,